Time;durP1;ratioP1;P1;durP2;ratioP2;P2;SDS_P1;SDS_P2;PMS_P1;PMS_P2;Temp;Humidity;BMP_temperature;BMP_pressure;BME280_temperature;BME280_humidity;BME280_pressure;Samples;Min_cycle;Max_cycle;Signal;HPM_P1;HPM_P2
2024/04/04 00:00:41;;;;;;;1.50;1.40;;;;;;;15.06;67.30;96770.44;5006370;28;20099;-80
2024/04/04 00:03:06;;;;;;;1.50;0.75;;;;;;;15.07;66.47;96771.97;5042715;28;20025;-80
2024/04/04 00:05:32;;;;;;;2.20;0.90;;;;;;;14.88;66.33;96765.94;5027792;28;20032;-79
2024/04/04 00:07:58;;;;;;;2.10;0.90;;;;;;;14.94;67.35;96765.59;5024976;28;20075;-80
2024/04/04 00:10:24;;;;;;;1.45;0.73;;;;;;;15.00;66.71;96758.44;5024963;28;20069;-80
2024/04/04 00:12:49;;;;;;;1.40;0.98;;;;;;;15.01;66.96;96767.06;5006165;28;20025;-79
2024/04/04 00:15:15;;;;;;;1.50;1.20;;;;;;;14.99;67.55;96759.50;5024604;28;20047;-80
2024/04/04 00:17:43;;;;;;;1.33;0.98;;;;;;;15.05;66.47;96758.38;5012465;28;20056;-80
2024/04/04 00:20:14;;;;;;;2.50;0.88;;;;;;;14.99;66.73;96754.25;5016194;28;20079;-79
2024/04/04 00:22:40;;;;;;;2.88;0.98;;;;;;;14.98;66.07;96757.94;5023815;28;20532;-79
2024/04/04 00:25:06;;;;;;;1.27;0.98;;;;;;;14.80;67.46;96751.63;5025443;28;20029;-79
2024/04/04 00:27:31;;;;;;;1.85;0.70;;;;;;;15.00;66.34;96760.28;5028065;28;20056;-80
2024/04/04 00:29:56;;;;;;;2.35;1.17;;;;;;;14.94;66.60;96751.69;5041688;28;20028;-79
2024/04/04 00:32:22;;;;;;;1.80;0.75;;;;;;;14.88;66.38;96750.22;5007329;28;20492;-78
2024/04/04 00:34:47;;;;;;;1.70;0.73;;;;;;;14.94;66.44;96749.88;5041016;28;20542;-81
2024/04/04 00:37:12;;;;;;;0.93;0.70;;;;;;;14.92;67.13;96751.19;5010015;28;20053;-80
2024/04/04 00:39:38;;;;;;;3.22;1.08;;;;;;;14.90;66.40;96750.72;5020894;28;20029;-80
2024/04/04 00:42:04;;;;;;;2.55;0.93;;;;;;;14.86;67.35;96739.25;5009694;28;20485;-79
2024/04/04 00:44:29;;;;;;;1.83;0.80;;;;;;;14.91;66.78;96742.56;5023159;28;20029;-80
2024/04/04 00:46:55;;;;;;;2.80;0.80;;;;;;;14.97;67.20;96735.41;5008444;28;20032;-80
2024/04/04 00:49:21;;;;;;;2.13;1.23;;;;;;;14.89;66.90;96728.97;5024828;28;20039;-79
2024/04/04 00:51:47;;;;;;;2.20;1.20;;;;;;;14.87;67.33;96725.81;5019647;28;20405;-79
2024/04/04 00:54:13;;;;;;;3.10;0.70;;;;;;;14.93;66.21;96724.72;5020980;28;20445;-80
2024/04/04 01:07:53;;;;;;;2.53;0.80;;;;;;;14.90;66.25;96719.25;5032427;28;20076;-79
2024/04/04 01:10:19;;;;;;;1.10;0.60;;;;;;;14.88;66.50;96716.16;5021342;28;20171;-80
2024/04/04 01:12:44;;;;;;;1.08;0.90;;;;;;;14.95;66.89;96725.19;5012007;28;20452;-79
2024/04/04 01:15:10;;;;;;;2.25;0.70;;;;;;;14.78;66.33;96720.44;4996311;28;20040;-80
2024/04/04 01:17:36;;;;;;;3.47;0.90;;;;;;;14.81;66.02;96721.72;4990598;28;20028;-79
2024/04/04 01:20:01;;;;;;;2.40;0.70;;;;;;;14.79;66.84;96719.41;5014265;28;20037;-80
2024/04/04 01:22:27;;;;;;;1.33;0.77;;;;;;;14.83;66.83;96716.22;4997427;28;20455;-79
2024/04/04 01:24:52;;;;;;;2.45;0.60;;;;;;;14.81;66.71;96726.22;5046067;28;20033;-80
2024/04/04 01:27:18;;;;;;;1.20;0.70;;;;;;;14.77;67.43;96721.53;5012215;28;20041;-80
2024/04/04 01:29:43;;;;;;;3.47;0.65;;;;;;;14.84;66.79;96721.19;5023747;28;20116;-80
2024/04/04 01:32:08;;;;;;;4.15;1.48;;;;;;;14.76;67.27;96719.19;5026504;28;20032;-79
2024/04/04 01:34:34;;;;;;;1.40;0.60;;;;;;;14.95;66.96;96730.44;5041135;28;20028;-79
2024/04/04 01:37:00;;;;;;;2.70;0.90;;;;;;;14.94;67.19;96721.03;5007724;28;20048;-87
2024/04/04 01:39:28;;;;;;;0.82;0.60;;;;;;;14.96;66.96;96715.50;5007916;28;20191;-82
2024/04/04 01:41:54;;;;;;;1.20;1.13;;;;;;;15.01;67.22;96715.44;5005455;28;20848;-82
2024/04/04 01:44:21;;;;;;;3.65;0.90;;;;;;;14.97;66.54;96720.44;5019637;28;20573;-82
2024/04/04 01:46:46;;;;;;;1.48;0.85;;;;;;;14.84;66.86;96700.22;5004601;28;20033;-83
2024/04/04 01:49:12;;;;;;;2.10;0.90;;;;;;;14.93;67.25;96702.97;5023654;28;20392;-81
2024/04/04 01:51:37;;;;;;;2.13;0.82;;;;;;;14.84;67.69;96707.28;5038716;28;20048;-82
2024/04/04 01:54:02;;;;;;;2.75;0.80;;;;;;;14.87;67.87;96698.84;5022921;28;20035;-82
2024/04/04 01:56:28;;;;;;;4.38;0.95;;;;;;;14.74;68.02;96700.34;5012487;28;20069;-86
2024/04/04 01:58:53;;;;;;;3.55;1.02;;;;;;;14.85;67.21;96680.00;5005075;28;20090;-82
2024/04/04 02:01:19;;;;;;;3.63;0.77;;;;;;;14.95;67.18;96695.59;5006215;28;20492;-82
2024/04/04 02:03:44;;;;;;;3.53;1.00;;;;;;;14.91;67.51;96700.63;5023900;28;20029;-81
2024/04/04 02:06:09;;;;;;;2.42;1.23;;;;;;;14.78;67.40;96694.22;5023831;28;20065;-82
2024/04/04 02:08:35;;;;;;;4.85;1.20;;;;;;;14.85;68.29;96691.25;5022126;28;20504;-83
2024/04/04 02:11:00;;;;;;;2.25;0.93;;;;;;;15.00;67.24;96692.91;5006530;28;20414;-85
2024/04/04 02:13:27;;;;;;;4.07;0.88;;;;;;;15.06;66.75;96678.66;5006911;28;20033;-82
2024/04/04 02:15:52;;;;;;;3.13;1.02;;;;;;;14.96;67.98;96681.44;5005189;28;20071;-83
2024/04/04 02:18:19;;;;;;;5.30;1.17;;;;;;;14.87;68.18;96670.00;5022226;28;21415;-82
2024/04/04 02:20:48;;;;;;;2.92;1.00;;;;;;;15.02;67.68;96671.66;5007349;28;20032;-83
2024/04/04 02:23:15;;;;;;;4.18;1.40;;;;;;;14.94;67.97;96670.44;4990630;28;20123;-85
2024/04/04 02:25:41;;;;;;;3.50;1.02;;;;;;;14.97;67.17;96675.09;5006387;28;20112;-83
2024/04/04 02:28:07;;;;;;;4.15;1.63;;;;;;;14.84;67.34;96673.19;4990982;28;20091;-84
2024/04/04 02:30:32;;;;;;;2.53;1.00;;;;;;;15.03;67.71;96667.94;5011072;28;20037;-84
2024/04/04 02:32:57;;;;;;;4.30;1.17;;;;;;;15.05;67.00;96674.47;5019501;28;20029;-85
2024/04/04 02:35:23;;;;;;;4.82;1.00;;;;;;;15.13;67.62;96670.41;5004543;28;20464;-82
2024/04/04 02:37:49;;;;;;;3.38;1.02;;;;;;;15.14;67.10;96678.00;4998397;28;20051;-83
2024/04/04 02:40:14;;;;;;;3.63;1.13;;;;;;;15.09;68.25;96674.69;5006187;28;20024;-86
2024/04/04 02:42:39;;;;;;;5.20;1.30;;;;;;;14.96;68.05;96665.72;5038507;28;20592;-84
2024/04/04 02:45:05;;;;;;;3.28;0.90;;;;;;;15.15;67.14;96676.94;5002286;28;20028;-84
2024/04/04 02:47:30;;;;;;;5.95;1.02;;;;;;;15.09;67.34;96672.06;5036276;28;20036;-79
2024/04/04 02:49:56;;;;;;;2.47;1.10;;;;;;;15.14;67.40;96671.97;5007366;28;20033;-78
2024/04/04 02:52:22;;;;;;;3.13;1.00;;;;;;;15.12;67.98;96669.63;5024204;28;20073;-79
2024/04/04 02:54:50;;;;;;;5.72;1.55;;;;;;;15.19;67.10;96674.53;4990771;28;20033;-80
2024/04/04 02:57:15;;;;;;;3.83;0.80;;;;;;;15.28;66.94;96664.16;5020861;28;20041;-79
2024/04/04 02:59:41;;;;;;;2.85;1.05;;;;;;;15.24;67.35;96682.31;5022172;28;20076;-78
2024/04/04 03:02:06;;;;;;;3.83;1.08;;;;;;;15.15;66.60;96671.69;5005515;28;20041;-79
2024/04/04 03:04:35;;;;;;;3.42;1.13;;;;;;;14.89;67.44;96671.31;5005286;28;20033;-80
2024/04/04 03:07:00;;;;;;;3.47;1.38;;;;;;;15.05;67.43;96671.84;5007242;28;20079;-79
2024/04/04 03:09:26;;;;;;;2.97;0.90;;;;;;;15.00;67.25;96674.56;5021889;28;20114;-80
2024/04/04 03:11:52;;;;;;;7.38;1.27;;;;;;;15.08;67.18;96673.91;5006038;28;20498;-81
2024/04/04 03:14:17;;;;;;;4.63;1.10;;;;;;;14.97;67.27;96662.78;5021136;28;20041;-79
2024/04/04 03:16:43;;;;;;;5.38;1.05;;;;;;;15.03;66.63;96665.31;5004904;28;20037;-80
2024/04/04 03:19:08;;;;;;;5.03;1.08;;;;;;;14.89;67.17;96675.75;5020674;28;20517;-80
2024/04/04 03:21:34;;;;;;;5.30;1.00;;;;;;;15.11;66.01;96673.34;5023825;28;20037;-79
2024/04/04 03:23:59;;;;;;;4.13;0.95;;;;;;;15.09;66.71;96667.59;5038539;28;20350;-78
2024/04/04 03:26:24;;;;;;;5.97;1.67;;;;;;;15.15;66.70;96673.56;5002825;28;20033;-80
2024/04/04 03:28:50;;;;;;;6.90;1.38;;;;;;;15.05;66.19;96658.75;5021894;28;20543;-79
2024/04/04 03:31:15;;;;;;;3.75;1.10;;;;;;;15.11;66.48;96665.47;5005252;28;20060;-80
2024/04/04 03:33:41;;;;;;;5.68;1.20;;;;;;;15.27;65.73;96668.63;5023736;28;20507;-80
2024/04/04 03:36:06;;;;;;;2.25;0.95;;;;;;;15.34;65.06;96663.03;5017952;28;20035;-80
2024/04/04 03:38:32;;;;;;;3.38;1.15;;;;;;;14.77;66.91;96661.25;5021553;28;20026;-80
2024/04/04 03:40:57;;;;;;;4.03;1.33;;;;;;;15.05;65.95;96666.59;5022471;28;20025;-80
2024/04/04 03:43:22;;;;;;;7.13;1.33;;;;;;;15.17;65.79;96674.81;5018978;28;20029;-80
2024/04/04 03:45:48;;;;;;;5.55;1.35;;;;;;;15.12;66.70;96664.41;5005165;28;20044;-80
2024/04/04 03:48:18;;;;;;;6.38;1.40;;;;;;;15.30;66.61;96654.16;5021149;28;20043;-80
2024/04/04 03:50:43;;;;;;;6.53;1.73;;;;;;;15.12;66.50;96648.66;5038854;28;20082;-80
2024/04/04 03:53:09;;;;;;;5.00;1.63;;;;;;;15.08;66.77;96652.94;5019509;28;20427;-81
2024/04/04 03:55:35;;;;;;;4.82;1.38;;;;;;;15.14;66.85;96657.00;5004748;28;20029;-80
2024/04/04 03:58:00;;;;;;;6.97;1.35;;;;;;;15.14;66.40;96662.25;5009250;28;20024;-79
2024/04/04 04:00:25;;;;;;;5.88;1.30;;;;;;;15.07;66.27;96659.22;4993395;28;20110;-80
2024/04/04 04:02:51;;;;;;;4.07;1.35;;;;;;;14.85;66.93;96640.69;5026371;28;20060;-80
2024/04/04 04:05:16;;;;;;;4.72;1.73;;;;;;;15.04;66.00;96646.69;5025760;28;20033;-78
2024/04/04 04:07:41;;;;;;;6.78;1.35;;;;;;;15.00;66.59;96643.09;5024335;28;20028;-79
2024/04/04 04:10:07;;;;;;;7.43;1.70;;;;;;;15.14;66.08;96640.50;5009033;28;20033;-80
2024/04/04 04:12:33;;;;;;;5.22;1.20;;;;;;;15.12;66.49;96648.66;5042394;28;20036;-79
2024/04/04 04:14:58;;;;;;;4.13;1.63;;;;;;;15.06;66.13;96639.34;5022467;28;20025;-80
2024/04/04 04:17:23;;;;;;;7.40;2.08;;;;;;;15.21;66.20;96640.16;5010365;28;20033;-79
2024/04/04 04:19:52;;;;;;;5.75;2.13;;;;;;;14.89;67.44;96636.44;5040924;28;20025;-79
2024/04/04 04:22:18;;;;;;;6.05;1.40;;;;;;;15.10;66.49;96631.66;5024520;28;20044;-79
2024/04/04 04:24:43;;;;;;;9.25;1.83;;;;;;;15.03;67.31;96641.72;5025534;28;20536;-80
2024/04/04 04:27:08;;;;;;;6.43;1.20;;;;;;;15.04;66.48;96636.19;5025529;28;20175;-80
2024/04/04 04:29:34;;;;;;;7.47;1.77;;;;;;;14.81;67.22;96632.63;5025107;28;20265;-79
2024/04/04 04:31:59;;;;;;;6.13;1.75;;;;;;;15.04;66.50;96649.31;5027653;28;20170;-79
2024/04/04 04:34:25;;;;;;;4.72;2.08;;;;;;;14.86;67.52;96637.78;4991634;28;20048;-79
2024/04/04 04:37:03;;;;;;;7.38;1.35;;;;;;;15.14;65.75;96640.50;5024000;28;20039;-80
2024/04/04 04:39:29;;;;;;;8.93;1.55;;;;;;;14.99;66.68;96649.38;5029093;28;20036;-80
2024/04/04 04:41:55;;;;;;;7.30;1.40;;;;;;;15.01;66.24;96647.28;5011309;28;20485;-79
2024/04/04 04:44:21;;;;;;;7.70;1.58;;;;;;;14.97;66.68;96639.19;5021274;28;20052;-80
2024/04/04 04:46:46;;;;;;;6.78;2.90;;;;;;;15.11;66.21;96646.31;5005716;28;20052;-79
2024/04/04 04:49:11;;;;;;;6.03;2.38;;;;;;;15.15;65.30;96642.09;4991582;28;20536;-80
2024/04/04 04:51:37;;;;;;;4.03;1.38;;;;;;;15.01;66.42;96636.78;5027266;28;20036;-79
2024/04/04 04:54:03;;;;;;;7.10;1.75;;;;;;;15.15;65.54;96635.00;5042067;28;20029;-80
2024/04/04 04:56:28;;;;;;;8.90;1.50;;;;;;;15.09;66.35;96643.22;5008022;28;20090;-80
2024/04/04 04:58:53;;;;;;;3.55;1.48;;;;;;;15.02;66.70;96627.06;5024704;28;20481;-78
2024/04/04 05:01:19;;;;;;;5.32;1.40;;;;;;;15.22;66.47;96647.72;5008152;28;20028;-79
2024/04/04 05:03:44;;;;;;;5.18;1.05;;;;;;;15.29;65.49;96640.28;5024774;28;20115;-78
2024/04/04 05:06:10;;;;;;;5.55;1.35;;;;;;;15.25;66.34;96643.75;5025507;28;20033;-79
2024/04/04 05:08:36;;;;;;;6.75;1.42;;;;;;;15.16;66.12;96631.31;4992160;28;21135;-79
2024/04/04 05:11:02;;;;;;;7.40;1.30;;;;;;;15.10;65.81;96632.44;5019216;28;20029;-80
2024/04/04 05:13:28;;;;;;;4.45;1.33;;;;;;;15.10;66.15;96629.81;5022838;28;20030;-78
2024/04/04 05:15:55;;;;;;;9.57;1.60;;;;;;;14.95;65.99;96611.72;5022305;28;20029;-78
2024/04/04 05:18:23;;;;;;;6.78;1.73;;;;;;;15.23;65.21;96614.41;5007641;28;20037;-79
2024/04/04 05:20:49;;;;;;;7.07;1.45;;;;;;;15.17;65.63;96614.50;5009579;28;20493;-78
2024/04/04 05:23:14;;;;;;;7.10;1.60;;;;;;;15.14;66.38;96609.81;5007236;28;20041;-79
2024/04/04 05:25:40;;;;;;;7.53;1.95;;;;;;;15.19;65.41;96600.31;5006113;28;20029;-80
2024/04/04 05:28:06;;;;;;;5.32;1.90;;;;;;;15.28;65.61;96606.44;5004745;28;20033;-79
2024/04/04 05:30:31;;;;;;;5.30;1.52;;;;;;;15.33;64.36;96598.50;5025097;28;20025;-79
2024/04/04 05:33:01;;;;;;;5.88;1.35;;;;;;;15.35;65.34;96598.97;5023470;28;20044;-80
2024/04/04 05:35:27;;;;;;;6.63;1.75;;;;;;;14.97;65.76;96580.75;5023188;28;20480;-80
2024/04/04 05:37:52;;;;;;;4.05;1.17;;;;;;;15.12;65.52;96588.34;5008911;28;20116;-79
2024/04/04 05:40:18;;;;;;;7.28;1.65;;;;;;;15.15;66.04;96603.53;5025555;28;20116;-78
2024/04/04 05:42:43;;;;;;;5.55;1.55;;;;;;;15.23;65.82;96590.81;5007449;28;20493;-80
2024/04/04 05:45:11;;;;;;;4.03;1.20;;;;;;;15.06;66.40;96580.84;5024400;28;20044;-79
2024/04/04 05:47:36;;;;;;;7.78;1.60;;;;;;;15.05;65.49;96589.81;5019665;28;20037;-79
2024/04/04 05:50:02;;;;;;;6.50;1.30;;;;;;;15.02;65.58;96585.91;4991103;28;20354;-79
2024/04/04 05:52:27;;;;;;;6.82;1.58;;;;;;;15.30;65.83;96591.19;5007517;28;20040;-79
2024/04/04 05:54:53;;;;;;;3.25;1.30;;;;;;;15.31;65.27;96593.53;5017931;28;20121;-79
2024/04/04 05:57:19;;;;;;;4.57;1.52;;;;;;;15.26;65.61;96575.28;5005839;28;20489;-79
2024/04/04 05:59:45;;;;;;;5.78;1.35;;;;;;;15.34;65.28;96590.34;5038381;28;20040;-79
2024/04/04 06:02:10;;;;;;;8.68;2.20;;;;;;;15.33;65.66;96585.38;5019756;28;20294;-80
2024/04/04 06:04:36;;;;;;;7.68;2.72;;;;;;;15.27;65.09;96581.31;5039936;28;20473;-78
2024/04/04 06:07:02;;;;;;;3.47;1.38;;;;;;;15.22;65.39;96573.53;5007373;28;20033;-80
2024/04/04 06:09:27;;;;;;;8.50;2.45;;;;;;;15.14;66.12;96583.59;5007068;28;20068;-84
2024/04/04 06:11:53;;;;;;;7.60;1.65;;;;;;;15.21;65.52;96577.22;4993019;28;20112;-84
2024/04/04 06:14:18;;;;;;;4.93;1.33;;;;;;;15.06;65.76;96581.66;5022341;28;20029;-85
2024/04/04 06:16:44;;;;;;;7.32;1.48;;;;;;;15.23;65.29;96577.69;5020787;28;20029;-87
2024/04/04 06:19:09;;;;;;;4.90;1.50;;;;;;;15.34;65.34;96574.59;5037688;28;20052;-85
2024/04/04 06:21:34;;;;;;;5.07;1.50;;;;;;;15.28;64.92;96572.34;5008211;28;20033;-83
2024/04/04 06:24:00;;;;;;;5.93;1.48;;;;;;;15.32;65.13;96583.84;5025541;28;20071;-84
2024/04/04 06:26:28;;;;;;;5.18;1.92;;;;;;;15.19;65.81;96561.75;4989498;28;20035;-83
2024/04/04 06:28:54;;;;;;;11.73;2.95;;;;;;;15.10;66.20;96566.88;5004465;28;20040;-82
2024/04/04 06:31:19;;;;;;;7.00;1.63;;;;;;;15.26;64.73;96564.78;5021458;28;20790;-83
2024/04/04 06:33:45;;;;;;;8.00;1.38;;;;;;;15.08;66.16;96582.13;5007267;28;20045;-85
2024/04/04 06:36:10;;;;;;;6.25;1.75;;;;;;;15.40;65.66;96585.78;5023961;28;20435;-85
2024/04/04 06:38:36;;;;;;;7.78;1.80;;;;;;;15.07;65.30;96572.72;5007949;28;20106;-86
2024/04/04 06:41:01;;;;;;;7.20;1.88;;;;;;;14.98;66.53;96561.34;5006939;28;20037;-85
2024/04/04 06:43:26;;;;;;;4.15;1.60;;;;;;;15.14;65.44;96580.97;4990199;28;20116;-84
2024/04/04 06:45:52;;;;;;;7.65;1.60;;;;;;;15.08;66.44;96582.13;5006188;28;20049;-84
2024/04/04 06:48:17;;;;;;;7.93;1.90;;;;;;;15.17;65.56;96583.03;5040171;28;20120;-87
2024/04/04 06:50:43;;;;;;;6.50;1.95;;;;;;;14.87;67.06;96594.00;5008887;28;20026;-84
2024/04/04 06:53:08;;;;;;;5.72;2.33;;;;;;;15.21;66.65;96582.44;5011055;28;20406;-86
2024/04/04 06:55:33;;;;;;;7.78;1.98;;;;;;;15.08;66.91;96586.59;5024598;28;20041;-84
2024/04/04 06:57:59;;;;;;;10.80;2.20;;;;;;;15.22;65.84;96584.03;5026000;28;20419;-83
2024/04/04 07:00:25;;;;;;;8.45;2.00;;;;;;;14.89;66.95;96597.91;5007354;28;20025;-82
2024/04/04 07:02:50;;;;;;;5.43;2.65;;;;;;;15.11;66.74;96581.56;5026512;28;20496;-83
2024/04/04 07:05:15;;;;;;;4.95;1.30;;;;;;;15.13;67.22;96578.63;5008797;28;20037;-85
2024/04/04 07:07:41;;;;;;;5.05;1.60;;;;;;;15.22;65.64;96581.41;5023745;28;20550;-83
2024/04/04 07:10:07;;;;;;;9.75;2.25;;;;;;;15.00;66.70;96598.53;5020958;28;20037;-84
2024/04/04 07:12:33;;;;;;;7.22;2.28;;;;;;;14.91;66.61;96589.75;4990093;28;20041;-86
2024/04/04 07:14:58;;;;;;;9.13;1.80;;;;;;;15.04;67.74;96603.97;5024459;28;20090;-83
2024/04/04 07:17:24;;;;;;;9.30;2.30;;;;;;;15.13;67.15;96600.41;4994905;28;20063;-86
2024/04/04 07:19:53;;;;;;;7.35;2.65;;;;;;;15.11;66.81;96610.41;5018493;28;20434;-80
2024/04/04 07:22:19;;;;;;;7.03;2.47;;;;;;;15.06;67.25;96615.75;5022052;28;20546;-79
2024/04/04 07:24:45;;;;;;;7.30;1.60;;;;;;;15.01;67.74;96600.09;4999823;28;20030;-79
2024/04/04 07:27:10;;;;;;;8.95;2.03;;;;;;;15.05;68.22;96606.31;5004610;28;20029;-82
2024/04/04 07:29:36;;;;;;;7.50;1.83;;;;;;;15.17;67.74;96604.00;5006367;28;20052;-79
2024/04/04 07:32:01;;;;;;;5.03;1.77;;;;;;;15.03;68.23;96608.44;4997006;28;20520;-80
2024/04/04 07:34:26;;;;;;;4.53;1.80;;;;;;;15.26;66.98;96592.84;5012456;28;20210;-81
2024/04/04 07:36:52;;;;;;;6.78;1.92;;;;;;;15.11;68.20;96607.78;4993139;28;20033;-79
2024/04/04 07:39:20;;;;;;;4.20;1.42;;;;;;;15.33;67.33;96604.50;5009493;28;20079;-79
2024/04/04 07:41:47;;;;;;;4.90;1.55;;;;;;;15.29;67.54;96613.28;5027297;28;20469;-80
2024/04/04 07:44:13;;;;;;;4.32;1.70;;;;;;;15.09;68.64;96604.66;5003232;28;20097;-80
2024/04/04 07:46:39;;;;;;;5.72;1.30;;;;;;;15.33;67.00;96619.47;5010244;28;20124;-80
2024/04/04 07:49:04;;;;;;;6.18;1.73;;;;;;;15.10;68.09;96615.94;5012970;28;20035;-80
2024/04/04 07:51:30;;;;;;;5.35;2.10;;;;;;;14.97;69.31;96614.81;5013707;28;20032;-80
2024/04/04 07:53:55;;;;;;;6.25;1.60;;;;;;;15.02;68.17;96612.13;5017206;28;20033;-81
2024/04/04 07:56:21;;;;;;;6.35;1.33;;;;;;;15.06;67.97;96634.09;5015976;28;20025;-81
2024/04/04 07:58:47;;;;;;;6.32;2.17;;;;;;;15.12;67.96;96622.44;5023029;28;20556;-81
2024/04/04 08:01:14;;;;;;;5.15;1.77;;;;;;;14.77;69.75;96611.44;5029069;28;20304;-81
2024/04/04 08:03:40;;;;;;;6.05;1.70;;;;;;;14.83;68.89;96620.00;5013187;28;20114;-81
2024/04/04 08:06:06;;;;;;;5.72;1.52;;;;;;;14.72;68.82;96610.72;5028177;28;20032;-82
2024/04/04 08:08:31;;;;;;;8.75;2.47;;;;;;;14.85;68.44;96611.88;4996977;28;20467;-81
2024/04/04 08:10:56;;;;;;;5.97;1.30;;;;;;;14.75;68.75;96626.69;4997141;28;20036;-81
2024/04/04 08:13:22;;;;;;;3.78;2.22;;;;;;;14.74;69.00;96619.88;5028724;28;20125;-80
2024/04/04 08:15:51;;;;;;;6.03;1.42;;;;;;;14.82;69.70;96633.41;5011008;28;20439;-81
2024/04/04 08:18:19;;;;;;;7.43;1.55;;;;;;;14.82;69.29;96628.16;5009686;28;20477;-82
2024/04/04 08:20:45;;;;;;;7.68;2.30;;;;;;;14.64;70.09;96633.13;5013423;28;20071;-81
2024/04/04 08:23:11;;;;;;;6.30;1.42;;;;;;;15.04;68.02;96635.44;5015375;28;20040;-80
2024/04/04 08:25:36;;;;;;;6.50;2.05;;;;;;;15.08;68.34;96652.94;5016875;28;20501;-81
2024/04/04 08:28:04;;;;;;;3.63;1.60;;;;;;;14.90;68.65;96632.75;5034272;28;20070;-83
2024/04/04 08:30:30;;;;;;;5.68;1.63;;;;;;;14.88;69.19;96650.63;5021186;28;20390;-82
2024/04/04 08:32:55;;;;;;;4.90;1.48;;;;;;;14.74;69.75;96647.94;5022014;28;20083;-82
2024/04/04 08:35:22;;;;;;;9.95;1.73;;;;;;;14.73;69.17;96652.38;5024810;28;20033;-81
2024/04/04 08:37:48;;;;;;;4.78;1.40;;;;;;;14.61;69.77;96654.66;5007221;28;20539;-86
2024/04/04 08:40:14;;;;;;;5.53;1.27;;;;;;;14.59;69.97;96668.03;5041249;28;20064;-88
2024/04/04 08:42:41;;;;;;;4.35;1.50;;;;;;;14.63;70.38;96667.47;5016454;28;20461;-86
2024/04/04 08:45:09;;;;;;;4.82;1.38;;;;;;;14.98;68.31;96674.84;5014550;28;20078;-83
2024/04/04 08:47:35;;;;;;;6.22;1.90;;;;;;;14.96;69.26;96656.00;5028212;28;20029;-84
2024/04/04 08:50:03;;;;;;;5.32;1.35;;;;;;;14.81;70.03;96663.31;5013434;28;20025;-88
2024/04/04 08:52:29;;;;;;;6.55;1.20;;;;;;;14.94;68.96;96657.31;5038142;28;20102;-86
2024/04/04 08:54:55;;;;;;;8.07;2.17;;;;;;;14.70;70.46;96670.50;5035899;28;20035;-84
2024/04/04 08:57:23;;;;;;;5.32;1.98;;;;;;;14.96;69.13;96660.47;5008153;28;20108;-83
2024/04/04 08:59:58;;;;;;;7.57;1.88;;;;;;;14.89;69.41;96660.03;5005916;28;20044;-84
2024/04/04 09:02:24;;;;;;;5.82;1.38;;;;;;;15.07;69.63;96674.97;5029283;28;20024;-86
2024/04/04 09:04:50;;;;;;;6.05;1.60;;;;;;;14.97;68.89;96665.41;4998416;28;20037;-85
2024/04/04 09:07:15;;;;;;;5.45;1.50;;;;;;;15.02;67.94;96661.16;5013268;28;20040;-86
2024/04/04 09:09:47;;;;;;;4.88;1.38;;;;;;;15.17;68.46;96672.19;5013200;28;20417;-84
2024/04/04 09:12:16;;;;;;;6.18;1.38;;;;;;;15.08;68.20;96676.53;4984052;28;20032;-87
2024/04/04 09:14:42;;;;;;;4.28;1.83;;;;;;;14.84;69.43;96668.75;5008663;28;20033;-83
2024/04/04 09:17:07;;;;;;;2.83;1.70;;;;;;;14.77;69.20;96663.88;5007189;28;20512;-84
2024/04/04 09:19:33;;;;;;;3.92;1.30;;;;;;;15.01;68.77;96663.00;5024453;28;20155;-87
2024/04/04 09:21:58;;;;;;;6.28;1.52;;;;;;;14.88;69.36;96698.56;5008200;28;20400;-84
2024/04/04 09:24:23;;;;;;;3.35;1.33;;;;;;;14.90;69.23;96685.19;5005123;28;20441;-86
2024/04/04 09:26:49;;;;;;;5.47;1.30;;;;;;;14.86;69.51;96679.72;5015392;28;20098;-85
2024/04/04 09:29:15;;;;;;;3.80;1.63;;;;;;;14.82;69.65;96696.28;5012583;28;20030;-88
2024/04/04 09:31:43;;;;;;;4.75;1.42;;;;;;;14.97;68.52;96688.22;5017118;28;20038;-84
2024/04/04 09:34:10;;;;;;;5.60;1.88;;;;;;;15.02;69.39;96697.88;4999956;28;20520;-82
2024/04/04 09:36:37;;;;;;;5.68;1.42;;;;;;;14.77;69.67;96702.38;4998023;28;20045;-83
2024/04/04 09:39:12;;;;;;;3.75;1.67;;;;;;;14.94;69.45;96701.88;5010479;28;20159;-80
2024/04/04 09:41:39;;;;;;;5.55;1.70;;;;;;;14.96;68.80;96697.94;5016651;28;20436;-81
2024/04/04 09:44:05;;;;;;;5.85;1.48;;;;;;;15.09;68.40;96688.56;5017735;28;20041;-80
2024/04/04 09:46:34;;;;;;;4.70;1.50;;;;;;;14.79;69.54;96677.47;5025659;28;20358;-81
2024/04/04 09:49:00;;;;;;;5.70;1.67;;;;;;;14.87;68.83;96685.75;5033108;28;20038;-85
2024/04/04 09:51:26;;;;;;;5.90;1.80;;;;;;;14.98;68.99;96697.66;4991184;28;20029;-85
2024/04/04 09:53:52;;;;;;;5.25;1.52;;;;;;;14.74;69.60;96695.88;5016024;28;20493;-86
2024/04/04 09:56:19;;;;;;;4.28;1.50;;;;;;;14.78;69.61;96685.59;4980184;28;20036;-85
2024/04/04 09:58:45;;;;;;;5.53;1.50;;;;;;;14.73;70.00;96689.06;5010192;28;20111;-86
2024/04/04 10:01:21;;;;;;;5.10;1.15;;;;;;;14.90;70.48;96700.91;5030035;28;20453;-85
2024/04/04 10:03:57;;;;;;;5.53;1.40;;;;;;;14.67;70.12;96682.34;5004360;28;20094;-85
2024/04/04 10:06:37;;;;;;;5.13;1.40;;;;;;;14.96;68.61;96702.41;5000429;28;20037;-85
2024/04/04 10:09:16;;;;;;;3.70;2.08;;;;;;;14.80;69.99;96699.19;5047343;28;20455;-83
2024/04/04 10:11:42;;;;;;;3.80;1.30;;;;;;;14.96;70.33;96707.66;4994511;28;20551;-85
2024/04/04 10:14:15;;;;;;;4.40;1.52;;;;;;;14.95;70.41;96709.47;5021261;28;20024;-87
2024/04/04 10:16:45;;;;;;;4.28;1.17;;;;;;;14.73;70.79;96696.16;4997606;28;20108;-84
2024/04/04 10:19:15;;;;;;;5.88;1.40;;;;;;;14.47;71.48;96675.50;5007818;28;20040;-82
2024/04/04 10:21:41;;;;;;;3.90;1.17;;;;;;;14.97;70.16;96683.75;4999719;28;20334;-84
2024/04/04 10:24:09;;;;;;;5.15;1.50;;;;;;;14.95;70.87;96688.50;5011009;28;20116;-84
2024/04/04 10:26:35;;;;;;;5.65;1.17;;;;;;;15.26;69.71;96674.94;5028690;28;20034;-86
2024/04/04 10:29:02;;;;;;;3.13;1.50;;;;;;;15.06;69.85;96685.72;4985871;28;20033;-83
2024/04/04 10:31:28;;;;;;;4.55;1.30;;;;;;;15.29;68.52;96686.72;5004505;28;20541;-85
2024/04/04 10:34:03;;;;;;;3.17;1.23;;;;;;;15.46;68.61;96681.72;5021598;28;20117;-86
2024/04/04 10:36:42;;;;;;;4.47;1.27;;;;;;;15.18;68.76;96680.81;4996290;28;20064;-86
2024/04/04 10:39:12;;;;;;;5.35;1.85;;;;;;;15.16;68.56;96669.84;5007424;28;20033;-84
2024/04/04 10:41:38;;;;;;;6.75;1.95;;;;;;;15.11;68.36;96680.41;5013298;28;20047;-84
2024/04/04 10:44:15;;;;;;;3.40;1.27;;;;;;;15.15;68.48;96684.81;4997809;28;20039;-82
2024/04/04 10:46:47;;;;;;;6.68;1.75;;;;;;;15.00;69.60;96682.41;4982229;28;20033;-88
2024/04/04 10:49:14;;;;;;;4.43;1.45;;;;;;;14.85;69.67;96685.25;5004046;28;20033;-80
2024/04/04 10:51:54;;;;;;;3.65;0.90;;;;;;;14.92;69.76;96696.16;5015732;28;20040;-80
2024/04/04 10:54:20;;;;;;;5.18;1.70;;;;;;;14.87;68.93;96677.88;5027007;28;20100;-81
2024/04/04 10:56:47;;;;;;;4.60;1.40;;;;;;;15.21;68.39;96690.75;5003710;28;20485;-79
2024/04/04 10:59:15;;;;;;;2.20;1.30;;;;;;;15.34;67.79;96694.50;5010624;28;20029;-80
2024/04/04 11:01:43;;;;;;;3.28;1.13;;;;;;;15.18;67.94;96672.94;5011277;28;20048;-81
2024/04/04 11:04:13;;;;;;;3.38;1.20;;;;;;;15.09;68.71;96677.31;5016586;28;20039;-80
2024/04/04 11:06:42;;;;;;;2.22;1.00;;;;;;;15.05;68.80;96686.81;4992414;28;20051;-81
2024/04/04 11:09:15;;;;;;;4.28;1.30;;;;;;;14.89;69.49;96675.75;5013421;28;20106;-80
2024/04/04 11:11:45;;;;;;;4.78;1.40;;;;;;;14.97;68.65;96682.97;4989518;28;20596;-79
2024/04/04 11:14:11;;;;;;;2.95;1.00;;;;;;;15.02;69.29;96690.78;5017065;28;20044;-80
2024/04/04 11:16:40;;;;;;;3.13;1.42;;;;;;;14.92;69.49;96685.66;5017946;28;20124;-81
2024/04/04 11:19:06;;;;;;;2.65;1.00;;;;;;;14.74;69.25;96682.00;5015666;28;20030;-80
2024/04/04 11:21:32;;;;;;;5.10;1.30;;;;;;;14.98;69.14;96674.84;5007213;28;20030;-80
2024/04/04 11:23:57;;;;;;;2.80;1.40;;;;;;;14.88;69.83;96684.69;5041669;28;20448;-80
2024/04/04 11:26:24;;;;;;;3.15;1.35;;;;;;;15.02;69.34;96696.00;5008458;28;20029;-80
2024/04/04 11:28:50;;;;;;;1.33;1.10;;;;;;;15.14;68.32;96691.09;5002093;28;20029;-80
2024/04/04 11:31:16;;;;;;;5.10;1.20;;;;;;;14.96;68.71;96690.06;4998284;28;20032;-80
2024/04/04 11:33:41;;;;;;;3.05;0.95;;;;;;;14.92;69.29;96688.28;5009668;28;20029;-80
2024/04/04 11:36:07;;;;;;;5.50;1.25;;;;;;;14.96;68.23;96670.94;5032634;28;20072;-81
2024/04/04 11:38:32;;;;;;;2.92;0.90;;;;;;;14.95;69.32;96674.63;4991142;28;20026;-79
2024/04/04 11:40:58;;;;;;;3.67;1.25;;;;;;;15.13;68.78;96686.16;5013509;28;20501;-80